sensor_id;sensor_type;location;lat;lon;timestamp;pressure;altitude;pressure_sealevel;temperature;humidity
59951;BME280;45812;53.540;9.774;2023-05-20T00:01:11;102736.19;;;14.33;47.16
59951;BME280;45812;53.540;9.774;2023-05-20T00:03:36;102740.09;;;14.29;47.72
59951;BME280;45812;53.540;9.774;2023-05-20T00:06:01;102740.38;;;14.26;48.15
59951;BME280;45812;53.540;9.774;2023-05-20T00:08:27;102735.31;;;14.23;47.86
59951;BME280;45812;53.540;9.774;2023-05-20T00:10:52;102733.75;;;14.20;48.64
59951;BME280;45812;53.540;9.774;2023-05-20T00:13:18;102741.94;;;14.19;47.93
59951;BME280;45812;53.540;9.774;2023-05-20T00:15:43;102743.22;;;14.15;48.01
59951;BME280;45812;53.540;9.774;2023-05-20T00:18:08;102736.41;;;14.11;48.23
59951;BME280;45812;53.540;9.774;2023-05-20T00:20:33;102742.75;;;14.10;47.62
59951;BME280;45812;53.540;9.774;2023-05-20T00:22:59;102743.59;;;14.10;47.24
59951;BME280;45812;53.540;9.774;2023-05-20T00:25:24;102741.75;;;14.11;47.36
59951;BME280;45812;53.540;9.774;2023-05-20T00:27:50;102738.25;;;14.10;48.33
59951;BME280;45812;53.540;9.774;2023-05-20T00:30:15;102733.72;;;14.11;48.08
59951;BME280;45812;53.540;9.774;2023-05-20T00:32:40;102744.59;;;14.09;47.59
59951;BME280;45812;53.540;9.774;2023-05-20T00:35:06;102741.06;;;14.09;47.98
59951;BME280;45812;53.540;9.774;2023-05-20T00:37:31;102742.03;;;14.08;48.24
59951;BME280;45812;53.540;9.774;2023-05-20T00:39:56;102735.00;;;14.07;47.92
59951;BME280;45812;53.540;9.774;2023-05-20T00:42:24;102733.31;;;14.06;47.97
59951;BME280;45812;53.540;9.774;2023-05-20T00:44:49;102735.13;;;14.05;47.96
59951;BME280;45812;53.540;9.774;2023-05-20T00:47:19;102729.94;;;14.04;48.09
59951;BME280;45812;53.540;9.774;2023-05-20T00:49:45;102731.75;;;14.03;48.38
59951;BME280;45812;53.540;9.774;2023-05-20T00:52:11;102736.41;;;14.01;48.62
59951;BME280;45812;53.540;9.774;2023-05-20T00:54:39;102723.31;;;13.98;48.23
59951;BME280;45812;53.540;9.774;2023-05-20T00:57:06;102720.75;;;13.97;48.06
59951;BME280;45812;53.540;9.774;2023-05-20T00:59:35;102728.78;;;13.97;48.32
59951;BME280;45812;53.540;9.774;2023-05-20T01:02:01;102724.53;;;13.94;48.52
59951;BME280;45812;53.540;9.774;2023-05-20T01:04:27;102731.88;;;13.92;49.02
59951;BME280;45812;53.540;9.774;2023-05-20T01:06:52;102722.28;;;13.89;47.74
59951;BME280;45812;53.540;9.774;2023-05-20T01:09:19;102728.63;;;13.88;48.31
59951;BME280;45812;53.540;9.774;2023-05-20T01:11:49;102725.09;;;13.88;49.33
59951;BME280;45812;53.540;9.774;2023-05-20T01:14:17;102719.88;;;13.86;48.69
59951;BME280;45812;53.540;9.774;2023-05-20T01:16:47;102721.84;;;13.84;49.15
59951;BME280;45812;53.540;9.774;2023-05-20T01:19:29;102720.31;;;13.82;49.68
59951;BME280;45812;53.540;9.774;2023-05-20T01:22:00;102711.56;;;13.80;50.14
59951;BME280;45812;53.540;9.774;2023-05-20T01:24:27;102716.91;;;13.80;50.58
59951;BME280;45812;53.540;9.774;2023-05-20T01:26:52;102721.44;;;13.79;50.74
59951;BME280;45812;53.540;9.774;2023-05-20T01:29:18;102717.91;;;13.79;50.56
59951;BME280;45812;53.540;9.774;2023-05-20T01:31:45;102721.56;;;13.78;50.81
59951;BME280;45812;53.540;9.774;2023-05-20T01:34:11;102724.38;;;13.76;50.82
59951;BME280;45812;53.540;9.774;2023-05-20T01:36:38;102718.28;;;13.74;50.64
59951;BME280;45812;53.540;9.774;2023-05-20T01:39:04;102717.88;;;13.69;50.73
59951;BME280;45812;53.540;9.774;2023-05-20T01:41:30;102725.19;;;13.67;51.30
59951;BME280;45812;53.540;9.774;2023-05-20T01:43:59;102721.09;;;13.63;51.44
59951;BME280;45812;53.540;9.774;2023-05-20T01:46:24;102722.34;;;13.59;51.97
59951;BME280;45812;53.540;9.774;2023-05-20T01:48:50;102718.22;;;13.55;52.19
59951;BME280;45812;53.540;9.774;2023-05-20T01:51:15;102716.94;;;13.49;52.75
59951;BME280;45812;53.540;9.774;2023-05-20T01:53:41;102712.00;;;13.45;52.99
59951;BME280;45812;53.540;9.774;2023-05-20T01:56:07;102710.47;;;13.42;53.68
59951;BME280;45812;53.540;9.774;2023-05-20T01:58:32;102716.19;;;13.38;53.93
59951;BME280;45812;53.540;9.774;2023-05-20T02:00:57;102723.38;;;13.37;54.62
59951;BME280;45812;53.540;9.774;2023-05-20T02:03:22;102718.28;;;13.34;55.17
59951;BME280;45812;53.540;9.774;2023-05-20T02:05:48;102710.53;;;13.31;55.45
59951;BME280;45812;53.540;9.774;2023-05-20T02:08:13;102716.03;;;13.29;56.34
59951;BME280;45812;53.540;9.774;2023-05-20T02:10:38;102718.97;;;13.26;57.48
59951;BME280;45812;53.540;9.774;2023-05-20T02:13:03;102717.13;;;13.27;58.29
59951;BME280;45812;53.540;9.774;2023-05-20T02:15:29;102711.94;;;13.25;58.86
59951;BME280;45812;53.540;9.774;2023-05-20T02:17:54;102711.94;;;13.25;59.88
59951;BME280;45812;53.540;9.774;2023-05-20T02:20:22;102709.66;;;13.21;60.84
59951;BME280;45812;53.540;9.774;2023-05-20T02:22:47;102707.09;;;13.19;61.68
59951;BME280;45812;53.540;9.774;2023-05-20T02:25:12;102704.56;;;13.18;61.69
59951;BME280;45812;53.540;9.774;2023-05-20T02:27:37;102704.56;;;13.18;62.92
59951;BME280;45812;53.540;9.774;2023-05-20T02:30:05;102696.78;;;13.15;63.13
59951;BME280;45812;53.540;9.774;2023-05-20T02:32:30;102704.06;;;13.13;63.39
59951;BME280;45812;53.540;9.774;2023-05-20T02:34:57;102698.16;;;13.09;63.47
59951;BME280;45812;53.540;9.774;2023-05-20T02:37:22;102699.13;;;13.08;64.11
59951;BME280;45812;53.540;9.774;2023-05-20T02:39:48;102698.28;;;13.08;64.53
59951;BME280;45812;53.540;9.774;2023-05-20T02:42:13;102700.25;;;13.06;64.63
59951;BME280;45812;53.540;9.774;2023-05-20T02:44:38;102703.19;;;13.02;64.89
59951;BME280;45812;53.540;9.774;2023-05-20T02:47:04;102701.59;;;13.00;65.48
59951;BME280;45812;53.540;9.774;2023-05-20T02:49:29;102703.56;;;12.98;65.78
59951;BME280;45812;53.540;9.774;2023-05-20T02:51:54;102695.94;;;12.93;66.17
59951;BME280;45812;53.540;9.774;2023-05-20T02:54:19;102700.72;;;12.90;66.74
59951;BME280;45812;53.540;9.774;2023-05-20T02:56:45;102701.00;;;12.87;67.00
59951;BME280;45812;53.540;9.774;2023-05-20T02:59:10;102697.75;;;12.83;67.69
59951;BME280;45812;53.540;9.774;2023-05-20T03:01:36;102698.09;;;12.79;67.52
59951;BME280;45812;53.540;9.774;2023-05-20T03:04:02;102707.09;;;12.78;67.72
59951;BME280;45812;53.540;9.774;2023-05-20T03:06:27;102709.19;;;12.74;68.19
59951;BME280;45812;53.540;9.774;2023-05-20T03:08:54;102715.66;;;12.71;68.51
59951;BME280;45812;53.540;9.774;2023-05-20T03:11:19;102711.41;;;12.69;68.83
59951;BME280;45812;53.540;9.774;2023-05-20T03:13:45;102711.81;;;12.64;68.87
59951;BME280;45812;53.540;9.774;2023-05-20T03:16:11;102708.66;;;12.59;69.39
59951;BME280;45812;53.540;9.774;2023-05-20T03:18:37;102702.59;;;12.57;69.83
59951;BME280;45812;53.540;9.774;2023-05-20T03:21:02;102709.91;;;12.55;70.70
59951;BME280;45812;53.540;9.774;2023-05-20T03:23:28;102715.38;;;12.54;70.74
59951;BME280;45812;53.540;9.774;2023-05-20T03:25:53;102714.53;;;12.53;70.80
59951;BME280;45812;53.540;9.774;2023-05-20T03:28:19;102709.19;;;12.53;71.27
59951;BME280;45812;53.540;9.774;2023-05-20T03:30:44;102702.88;;;12.54;71.55
59951;BME280;45812;53.540;9.774;2023-05-20T03:33:09;102709.19;;;12.53;71.83
59951;BME280;45812;53.540;9.774;2023-05-20T03:35:34;102703.97;;;12.52;72.42
59951;BME280;45812;53.540;9.774;2023-05-20T03:38:00;102700.47;;;12.51;72.44
59951;BME280;45812;53.540;9.774;2023-05-20T03:40:25;102704.94;;;12.51;72.33
59951;BME280;45812;53.540;9.774;2023-05-20T03:42:51;102706.66;;;12.52;72.67
59951;BME280;45812;53.540;9.774;2023-05-20T03:45:16;102703.25;;;12.50;72.87
59951;BME280;45812;53.540;9.774;2023-05-20T03:47:41;102711.72;;;12.55;73.70
59951;BME280;45812;53.540;9.774;2023-05-20T03:50:07;102708.06;;;12.56;74.03
59951;BME280;45812;53.540;9.774;2023-05-20T03:52:32;102694.72;;;12.56;74.26
59951;BME280;45812;53.540;9.774;2023-05-20T03:54:58;102711.19;;;12.61;73.91
59951;BME280;45812;53.540;9.774;2023-05-20T03:57:24;102713.03;;;12.60;74.19
59951;BME280;45812;53.540;9.774;2023-05-20T03:59:49;102711.81;;;12.64;74.31
59951;BME280;45812;53.540;9.774;2023-05-20T04:02:15;102709.72;;;12.68;74.69
59951;BME280;45812;53.540;9.774;2023-05-20T04:04:40;102714.94;;;12.69;74.60
59951;BME280;45812;53.540;9.774;2023-05-20T04:07:08;102712.13;;;12.71;74.66
59951;BME280;45812;53.540;9.774;2023-05-20T04:09:33;102710.03;;;12.74;74.98
59951;BME280;45812;53.540;9.774;2023-05-20T04:11:58;102715.97;;;12.78;75.18
59951;BME280;45812;53.540;9.774;2023-05-20T04:14:23;102719.00;;;12.85;75.73
59951;BME280;45812;53.540;9.774;2023-05-20T04:16:49;102717.59;;;12.90;75.64
59951;BME280;45812;53.540;9.774;2023-05-20T04:19:15;102722.41;;;12.96;76.07
59951;BME280;45812;53.540;9.774;2023-05-20T04:21:43;102717.53;;;13.01;75.84
59951;BME280;45812;53.540;9.774;2023-05-20T04:24:09;102720.22;;;13.01;75.32
59951;BME280;45812;53.540;9.774;2023-05-20T04:26:35;102711.94;;;13.04;75.72
59951;BME280;45812;53.540;9.774;2023-05-20T04:29:01;102709.84;;;13.08;76.06
59951;BME280;45812;53.540;9.774;2023-05-20T04:31:28;102714.06;;;13.11;75.94
59951;BME280;45812;53.540;9.774;2023-05-20T04:33:53;102716.59;;;13.12;75.90
59951;BME280;45812;53.540;9.774;2023-05-20T04:36:18;102717.31;;;13.14;75.66
59951;BME280;45812;53.540;9.774;2023-05-20T04:38:44;102718.28;;;13.13;76.05
59951;BME280;45812;53.540;9.774;2023-05-20T04:41:11;102718.28;;;13.13;76.07
59951;BME280;45812;53.540;9.774;2023-05-20T04:43:37;102715.63;;;13.13;76.25
59951;BME280;45812;53.540;9.774;2023-05-20T04:46:04;102713.22;;;13.10;76.54
59951;BME280;45812;53.540;9.774;2023-05-20T04:48:32;102712.25;;;13.11;76.53
59951;BME280;45812;53.540;9.774;2023-05-20T04:50:58;102707.03;;;13.10;76.94
59951;BME280;45812;53.540;9.774;2023-05-20T04:53:23;102709.84;;;13.08;76.71
59951;BME280;45812;53.540;9.774;2023-05-20T04:55:49;102707.88;;;13.10;77.00
59951;BME280;45812;53.540;9.774;2023-05-20T04:58:19;102714.78;;;13.13;76.54
59951;BME280;45812;53.540;9.774;2023-05-20T05:00:48;102704.78;;;13.15;77.26
59951;BME280;45812;53.540;9.774;2023-05-20T05:03:13;102705.63;;;13.15;76.48
59951;BME280;45812;53.540;9.774;2023-05-20T05:05:39;102707.47;;;13.15;76.67
59951;BME280;45812;53.540;9.774;2023-05-20T05:08:05;102707.31;;;13.16;77.02
59951;BME280;45812;53.540;9.774;2023-05-20T05:10:31;102709.91;;;13.18;77.43
59951;BME280;45812;53.540;9.774;2023-05-20T05:12:57;102706.00;;;13.22;77.34
59951;BME280;45812;53.540;9.774;2023-05-20T05:15:22;102706.72;;;13.24;77.27
59951;BME280;45812;53.540;9.774;2023-05-20T05:17:48;102704.03;;;13.24;77.49
59951;BME280;45812;53.540;9.774;2023-05-20T05:20:13;102717.00;;;13.28;77.73
59951;BME280;45812;53.540;9.774;2023-05-20T05:22:38;102707.16;;;13.29;77.41
59951;BME280;45812;53.540;9.774;2023-05-20T05:25:06;102705.31;;;13.29;77.25
59951;BME280;45812;53.540;9.774;2023-05-20T05:27:32;102713.06;;;13.32;77.46
59951;BME280;45812;53.540;9.774;2023-05-20T05:29:59;102711.97;;;13.35;77.56
59951;BME280;45812;53.540;9.774;2023-05-20T05:32:24;102716.19;;;13.38;77.33
59951;BME280;45812;53.540;9.774;2023-05-20T05:34:49;102721.66;;;13.36;77.57
59951;BME280;45812;53.540;9.774;2023-05-20T05:37:15;102715.19;;;13.39;77.82
59951;BME280;45812;53.540;9.774;2023-05-20T05:39:40;102712.81;;;13.36;77.81
59951;BME280;45812;53.540;9.774;2023-05-20T05:42:05;102717.03;;;13.38;78.04
59951;BME280;45812;53.540;9.774;2023-05-20T05:44:30;102710.72;;;13.39;77.83
59951;BME280;45812;53.540;9.774;2023-05-20T05:46:56;102710.47;;;13.42;77.81
59951;BME280;45812;53.540;9.774;2023-05-20T05:49:21;102710.19;;;13.45;77.51
59951;BME280;45812;53.540;9.774;2023-05-20T05:51:46;102711.72;;;13.48;78.13
59951;BME280;45812;53.540;9.774;2023-05-20T05:54:12;102712.16;;;13.53;78.27
59951;BME280;45812;53.540;9.774;2023-05-20T05:56:37;102712.63;;;13.58;78.39
59951;BME280;45812;53.540;9.774;2023-05-20T05:59:03;102720.81;;;13.66;78.42
59951;BME280;45812;53.540;9.774;2023-05-20T06:01:28;102716.03;;;13.70;78.25
59951;BME280;45812;53.540;9.774;2023-05-20T06:03:54;102705.88;;;13.73;77.77
59951;BME280;45812;53.540;9.774;2023-05-20T06:06:19;102709.72;;;13.80;77.57
59951;BME280;45812;53.540;9.774;2023-05-20T06:08:44;102711.84;;;13.86;78.01
59951;BME280;45812;53.540;9.774;2023-05-20T06:11:10;102706.22;;;13.89;77.04
59951;BME280;45812;53.540;9.774;2023-05-20T06:13:35;102714.94;;;13.91;76.65
59951;BME280;45812;53.540;9.774;2023-05-20T06:16:00;102712.72;;;13.97;76.66
59951;BME280;45812;53.540;9.774;2023-05-20T06:18:26;102705.97;;;14.02;76.58
59951;BME280;45812;53.540;9.774;2023-05-20T06:20:55;102706.66;;;14.04;75.92
59951;BME280;45812;53.540;9.774;2023-05-20T06:23:21;102707.94;;;14.10;75.58
59951;BME280;45812;53.540;9.774;2023-05-20T06:25:46;102709.94;;;14.17;75.78
59951;BME280;45812;53.540;9.774;2023-05-20T06:28:12;102707.69;;;14.22;76.40
59951;BME280;45812;53.540;9.774;2023-05-20T06:30:38;102707.94;;;14.29;77.10
59951;BME280;45812;53.540;9.774;2023-05-20T06:33:03;102700.63;;;14.31;75.53
59951;BME280;45812;53.540;9.774;2023-05-20T06:35:28;102706.28;;;14.38;75.07
59951;BME280;45812;53.540;9.774;2023-05-20T06:37:54;102696.84;;;14.43;75.63
59951;BME280;45812;53.540;9.774;2023-05-20T06:40:19;102698.94;;;14.49;74.17
59951;BME280;45812;53.540;9.774;2023-05-20T06:42:45;102703.63;;;14.57;74.63
59951;BME280;45812;53.540;9.774;2023-05-20T06:45:10;102689.78;;;14.62;74.44
59951;BME280;45812;53.540;9.774;2023-05-20T06:47:36;102695.28;;;14.70;73.11
59951;BME280;45812;53.540;9.774;2023-05-20T06:50:01;102690.34;;;14.75;73.23
59951;BME280;45812;53.540;9.774;2023-05-20T06:52:27;102695.81;;;14.83;73.05
59951;BME280;45812;53.540;9.774;2023-05-20T06:54:52;102683.41;;;14.92;72.81
59951;BME280;45812;53.540;9.774;2023-05-20T06:57:17;102689.56;;;15.02;72.52
59951;BME280;45812;53.540;9.774;2023-05-20T06:59:42;102684.03;;;15.13;72.91
59951;BME280;45812;53.540;9.774;2023-05-20T07:02:08;102683.56;;;15.27;72.20
59951;BME280;45812;53.540;9.774;2023-05-20T07:04:33;102670.94;;;15.37;71.23
59951;BME280;45812;53.540;9.774;2023-05-20T07:06:58;102673.13;;;15.52;70.08
59951;BME280;45812;53.540;9.774;2023-05-20T07:09:24;102670.13;;;15.64;69.08
59951;BME280;45812;53.540;9.774;2023-05-20T07:11:49;102662.00;;;15.74;68.70
59951;BME280;45812;53.540;9.774;2023-05-20T07:14:14;102668.69;;;15.88;68.49
59951;BME280;45812;53.540;9.774;2023-05-20T07:16:40;102661.41;;;15.98;68.14
59951;BME280;45812;53.540;9.774;2023-05-20T07:19:05;102667.25;;;16.11;67.54
59951;BME280;45812;53.540;9.774;2023-05-20T07:21:30;102660.97;;;16.20;65.92
59951;BME280;45812;53.540;9.774;2023-05-20T07:23:55;102667.59;;;16.34;65.51
59951;BME280;45812;53.540;9.774;2023-05-20T07:26:21;102663.84;;;16.45;65.63
59951;BME280;45812;53.540;9.774;2023-05-20T07:28:46;102669.00;;;16.56;64.53
59951;BME280;45812;53.540;9.774;2023-05-20T07:31:12;102658.13;;;16.65;63.29
59951;BME280;45812;53.540;9.774;2023-05-20T07:33:37;102658.91;;;16.76;63.56
59951;BME280;45812;53.540;9.774;2023-05-20T07:36:03;102664.16;;;16.85;64.00
59951;BME280;45812;53.540;9.774;2023-05-20T07:38:28;102664.53;;;16.90;62.75
59951;BME280;45812;53.540;9.774;2023-05-20T07:40:53;102656.38;;;17.00;63.53
59951;BME280;45812;53.540;9.774;2023-05-20T07:43:19;102652.19;;;17.06;63.07
59951;BME280;45812;53.540;9.774;2023-05-20T07:45:44;102657.94;;;17.11;61.58
59951;BME280;45812;53.540;9.774;2023-05-20T07:48:09;102653.25;;;17.13;61.62
59951;BME280;45812;53.540;9.774;2023-05-20T07:50:35;102656.28;;;17.18;61.93
59951;BME280;45812;53.540;9.774;2023-05-20T07:53:00;102645.19;;;17.21;62.64
59951;BME280;45812;53.540;9.774;2023-05-20T07:55:26;102636.78;;;17.24;62.03
59951;BME280;45812;53.540;9.774;2023-05-20T07:57:51;102644.88;;;17.24;61.00
59951;BME280;45812;53.540;9.774;2023-05-20T08:00:16;102648.56;;;17.23;60.70
59951;BME280;45812;53.540;9.774;2023-05-20T08:02:41;102652.25;;;17.22;60.89
59951;BME280;45812;53.540;9.774;2023-05-20T08:05:07;102650.25;;;17.24;61.29
59951;BME280;45812;53.540;9.774;2023-05-20T08:07:32;102652.09;;;17.23;60.87
59951;BME280;45812;53.540;9.774;2023-05-20T08:09:58;102646.03;;;17.21;59.51
59951;BME280;45812;53.540;9.774;2023-05-20T08:12:23;102658.66;;;17.21;60.14
59951;BME280;45812;53.540;9.774;2023-05-20T08:14:48;102657.47;;;17.23;61.40
59951;BME280;45812;53.540;9.774;2023-05-20T08:17:13;102652.94;;;17.24;60.96
59951;BME280;45812;53.540;9.774;2023-05-20T08:19:39;102652.94;;;17.24;59.57
59951;BME280;45812;53.540;9.774;2023-05-20T08:22:04;102647.06;;;17.29;62.34
59951;BME280;45812;53.540;9.774;2023-05-20T08:24:30;102649.63;;;17.30;61.64
59951;BME280;45812;53.540;9.774;2023-05-20T08:26:55;102641.06;;;17.35;61.99
59951;BME280;45812;53.540;9.774;2023-05-20T08:29:21;102634.16;;;17.40;61.41
59951;BME280;45812;53.540;9.774;2023-05-20T08:31:46;102636.91;;;17.48;60.09
59951;BME280;45812;53.540;9.774;2023-05-20T08:34:11;102634.22;;;17.56;59.66
59951;BME280;45812;53.540;9.774;2023-05-20T08:36:36;102637.50;;;17.68;60.32
59951;BME280;45812;53.540;9.774;2023-05-20T08:39:02;102639.38;;;17.92;59.35
59951;BME280;45812;53.540;9.774;2023-05-20T08:41:28;102633.34;;;18.06;57.08
59951;BME280;45812;53.540;9.774;2023-05-20T08:43:53;102635.53;;;18.27;58.72
59951;BME280;45812;53.540;9.774;2023-05-20T08:46:20;102622.53;;;18.55;57.77
59951;BME280;45812;53.540;9.774;2023-05-20T08:48:46;102633.81;;;18.83;56.19
59951;BME280;45812;53.540;9.774;2023-05-20T08:51:12;102619.41;;;19.07;52.82
59951;BME280;45812;53.540;9.774;2023-05-20T08:53:40;102623.66;;;19.32;51.76
59951;BME280;45812;53.540;9.774;2023-05-20T08:56:06;102622.88;;;19.63;54.04
59951;BME280;45812;53.540;9.774;2023-05-20T08:58:32;102612.22;;;19.92;53.02
59951;BME280;45812;53.540;9.774;2023-05-20T09:00:58;102612.38;;;20.14;50.58
59951;BME280;45812;53.540;9.774;2023-05-20T09:03:23;102619.31;;;20.31;49.41
59951;BME280;45812;53.540;9.774;2023-05-20T09:05:50;102612.31;;;20.60;48.31
59951;BME280;45812;53.540;9.774;2023-05-20T09:08:15;102608.97;;;20.87;46.87
59951;BME280;45812;53.540;9.774;2023-05-20T09:10:41;102597.47;;;21.00;44.17
59951;BME280;45812;53.540;9.774;2023-05-20T09:13:07;102605.69;;;21.06;45.57
59951;BME280;45812;53.540;9.774;2023-05-20T09:15:33;102608.22;;;21.23;44.20
59951;BME280;45812;53.540;9.774;2023-05-20T09:18:03;102592.13;;;21.36;43.77
59951;BME280;45812;53.540;9.774;2023-05-20T09:20:29;102597.44;;;21.44;41.32
59951;BME280;45812;53.540;9.774;2023-05-20T09:23:06;102594.47;;;21.39;43.53
59951;BME280;45812;53.540;9.774;2023-05-20T09:25:32;102596.16;;;21.40;44.25
59951;BME280;45812;53.540;9.774;2023-05-20T09:27:57;102587.34;;;21.38;43.55
59951;BME280;45812;53.540;9.774;2023-05-20T09:30:23;102589.22;;;21.37;43.72
59951;BME280;45812;53.540;9.774;2023-05-20T09:32:56;102601.44;;;21.48;43.50
59951;BME280;45812;53.540;9.774;2023-05-20T09:35:22;102595.09;;;21.77;42.76
59951;BME280;45812;53.540;9.774;2023-05-20T09:37:51;102600.13;;;22.01;40.66
59951;BME280;45812;53.540;9.774;2023-05-20T09:40:26;102592.63;;;22.25;40.91
59951;BME280;45812;53.540;9.774;2023-05-20T09:42:57;102586.44;;;22.65;41.15
59951;BME280;45812;53.540;9.774;2023-05-20T09:45:24;102581.91;;;23.07;39.26
59951;BME280;45812;53.540;9.774;2023-05-20T09:47:50;102581.81;;;23.35;37.98
59951;BME280;45812;53.540;9.774;2023-05-20T09:50:17;102580.22;;;23.61;39.47
59951;BME280;45812;53.540;9.774;2023-05-20T09:52:46;102578.56;;;23.79;37.60
59951;BME280;45812;53.540;9.774;2023-05-20T09:55:12;102585.09;;;23.92;38.38
59951;BME280;45812;53.540;9.774;2023-05-20T09:57:37;102578.41;;;24.07;37.93
59951;BME280;45812;53.540;9.774;2023-05-20T10:00:05;102572.97;;;24.21;37.50
59951;BME280;45812;53.540;9.774;2023-05-20T10:02:32;102577.34;;;24.22;35.27
59951;BME280;45812;53.540;9.774;2023-05-20T10:04:58;102576.75;;;24.00;35.93
59951;BME280;45812;53.540;9.774;2023-05-20T10:10:32;102569.75;;;23.58;37.62
59951;BME280;45812;53.540;9.774;2023-05-20T10:13:12;102572.81;;;23.28;39.04
59951;BME280;45812;53.540;9.774;2023-05-20T10:21:14;102564.81;;;22.79;38.24
59951;BME280;45812;53.540;9.774;2023-05-20T10:23:40;102554.56;;;22.74;38.42
59951;BME280;45812;53.540;9.774;2023-05-20T10:26:05;102556.44;;;22.74;38.81
59951;BME280;45812;53.540;9.774;2023-05-20T10:28:33;102545.84;;;22.85;38.99
59951;BME280;45812;53.540;9.774;2023-05-20T10:31:00;102546.97;;;22.98;38.00
59951;BME280;45812;53.540;9.774;2023-05-20T10:33:26;102543.13;;;23.33;37.22
59951;BME280;45812;53.540;9.774;2023-05-20T10:35:53;102544.91;;;23.67;37.71
59951;BME280;45812;53.540;9.774;2023-05-20T10:38:19;102535.50;;;23.90;37.38
59951;BME280;45812;53.540;9.774;2023-05-20T10:40:45;102534.25;;;23.99;36.79
59951;BME280;45812;53.540;9.774;2023-05-20T10:43:13;102524.63;;;24.03;36.05
59951;BME280;45812;53.540;9.774;2023-05-20T10:45:50;102531.31;;;24.00;36.89
59951;BME280;45812;53.540;9.774;2023-05-20T10:48:31;102531.13;;;23.82;37.80
59951;BME280;45812;53.540;9.774;2023-05-20T10:51:01;102527.53;;;23.62;38.45
59951;BME280;45812;53.540;9.774;2023-05-20T10:53:40;102529.38;;;23.54;38.56
59951;BME280;45812;53.540;9.774;2023-05-20T10:56:05;102532.31;;;23.60;38.04
59951;BME280;45812;53.540;9.774;2023-05-20T10:58:40;102528.31;;;23.55;38.24
59951;BME280;45812;53.540;9.774;2023-05-20T11:01:05;102527.06;;;23.45;37.58
59951;BME280;45812;53.540;9.774;2023-05-20T11:03:32;102525.19;;;23.45;37.17
59951;BME280;45812;53.540;9.774;2023-05-20T11:05:58;102516.84;;;23.80;37.10
59951;BME280;45812;53.540;9.774;2023-05-20T11:08:28;102511.22;;;23.95;36.36
59951;BME280;45812;53.540;9.774;2023-05-20T11:10:55;102511.63;;;24.11;36.97
59951;BME280;45812;53.540;9.774;2023-05-20T11:13:21;102518.53;;;24.14;36.69
59951;BME280;45812;53.540;9.774;2023-05-20T11:15:48;102517.69;;;24.13;36.66
59951;BME280;45812;53.540;9.774;2023-05-20T11:18:13;102519.59;;;24.06;34.93
59951;BME280;45812;53.540;9.774;2023-05-20T11:20:39;102523.56;;;23.97;34.35
59951;BME280;45812;53.540;9.774;2023-05-20T11:23:05;102517.31;;;24.03;35.00
59951;BME280;45812;53.540;9.774;2023-05-20T11:25:31;102519.97;;;24.16;34.91
59951;BME280;45812;53.540;9.774;2023-05-20T11:27:58;102513.53;;;24.37;34.30
59951;BME280;45812;53.540;9.774;2023-05-20T11:30:23;102500.84;;;24.69;34.82
59951;BME280;45812;53.540;9.774;2023-05-20T11:35:23;102507.94;;;24.77;36.08
59951;BME280;45812;53.540;9.774;2023-05-20T11:38:18;102502.22;;;24.92;34.49
59951;BME280;45812;53.540;9.774;2023-05-20T11:40:51;102493.91;;;24.80;35.23
59951;BME280;45812;53.540;9.774;2023-05-20T11:43:16;102499.63;;;24.52;35.27
59951;BME280;45812;53.540;9.774;2023-05-20T11:45:47;102496.75;;;24.27;36.08
59951;BME280;45812;53.540;9.774;2023-05-20T11:48:17;102500.31;;;24.14;36.13
59951;BME280;45812;53.540;9.774;2023-05-20T11:50:44;102504.31;;;23.92;35.62
59951;BME280;45812;53.540;9.774;2023-05-20T11:53:13;102505.59;;;23.70;36.87
59951;BME280;45812;53.540;9.774;2023-05-20T11:55:48;102503.03;;;23.48;36.79
59951;BME280;45812;53.540;9.774;2023-05-20T11:58:29;102496.69;;;23.21;37.29
59951;BME280;45812;53.540;9.774;2023-05-20T12:00:54;102489.53;;;23.01;37.37
59951;BME280;45812;53.540;9.774;2023-05-20T12:03:20;102491.56;;;22.85;38.97
59951;BME280;45812;53.540;9.774;2023-05-20T12:05:46;102493.09;;;22.66;37.57
59951;BME280;45812;53.540;9.774;2023-05-20T12:08:14;102490.16;;;22.55;38.90
59951;BME280;45812;53.540;9.774;2023-05-20T12:10:40;102488.41;;;22.41;39.56
59951;BME280;45812;53.540;9.774;2023-05-20T12:13:06;102496.22;;;22.22;40.41
59951;BME280;45812;53.540;9.774;2023-05-20T12:15:36;102499.13;;;22.21;40.02
59951;BME280;45812;53.540;9.774;2023-05-20T12:18:02;102493.69;;;22.21;39.56
59951;BME280;45812;53.540;9.774;2023-05-20T12:20:28;102495.13;;;22.17;39.43
59951;BME280;45812;53.540;9.774;2023-05-20T12:22:55;102489.50;;;22.18;40.28
59951;BME280;45812;53.540;9.774;2023-05-20T12:25:20;102486.59;;;22.20;40.38
59951;BME280;45812;53.540;9.774;2023-05-20T12:27:47;102482.25;;;22.25;40.62
59951;BME280;45812;53.540;9.774;2023-05-20T12:30:20;102487.91;;;22.30;41.36
59951;BME280;45812;53.540;9.774;2023-05-20T12:32:48;102475.97;;;22.25;40.93
59951;BME280;45812;53.540;9.774;2023-05-20T12:35:15;102479.09;;;22.22;39.21
59951;BME280;45812;53.540;9.774;2023-05-20T12:37:41;102469.72;;;22.24;39.27
59951;BME280;45812;53.540;9.774;2023-05-20T12:40:08;102475.47;;;22.43;39.01
59951;BME280;45812;53.540;9.774;2023-05-20T12:42:34;102467.22;;;22.64;37.83
59951;BME280;45812;53.540;9.774;2023-05-20T12:45:00;102476.56;;;22.96;37.09
59951;BME280;45812;53.540;9.774;2023-05-20T12:47:25;102460.34;;;23.36;36.38
59951;BME280;45812;53.540;9.774;2023-05-20T12:49:50;102469.63;;;23.81;35.48
59951;BME280;45812;53.540;9.774;2023-05-20T12:52:15;102468.75;;;23.94;35.91
59951;BME280;45812;53.540;9.774;2023-05-20T12:54:41;102474.41;;;23.79;35.84
59951;BME280;45812;53.540;9.774;2023-05-20T12:57:06;102468.38;;;23.64;36.37